createdAt,value
2018-07-16T00:00:21.523Z,8.58
2018-07-16T00:02:50.224Z,9.48
2018-07-16T00:05:18.708Z,8.83
2018-07-16T00:07:47.405Z,9.05
2018-07-16T00:10:16.205Z,8.73
2018-07-16T00:12:44.513Z,9.50
2018-07-16T00:15:13.631Z,9.30
2018-07-16T00:17:41.926Z,9.17
2018-07-16T00:20:10.229Z,8.90
2018-07-16T00:22:38.626Z,8.90
2018-07-16T00:25:07.332Z,9.33
2018-07-16T00:27:35.852Z,10.00
2018-07-16T00:30:04.537Z,9.60
2018-07-16T00:32:33.036Z,10.20
2018-07-16T00:35:01.373Z,9.53
2018-07-16T00:37:31.909Z,9.40
2018-07-16T00:40:00.495Z,9.80
2018-07-16T00:42:28.993Z,10.00
2018-07-16T00:44:57.610Z,9.50
2018-07-16T00:47:26.218Z,9.20
2018-07-16T00:49:54.629Z,9.30
2018-07-16T00:52:22.887Z,9.15
2018-07-16T00:54:50.782Z,9.53
2018-07-16T00:57:19.077Z,9.60
2018-07-16T00:59:47.867Z,9.03
2018-07-16T01:02:16.189Z,8.70
2018-07-16T01:04:44.691Z,9.20
2018-07-16T01:07:12.963Z,9.20
2018-07-16T01:09:41.807Z,9.05
2018-07-16T01:12:10.303Z,9.30
2018-07-16T01:14:38.592Z,9.70
2018-07-16T01:17:07.312Z,9.08
2018-07-16T01:19:35.931Z,9.50
2018-07-16T01:22:04.344Z,9.15
2018-07-16T01:24:32.687Z,9.30
2018-07-16T01:27:00.997Z,9.20
2018-07-16T01:29:29.177Z,9.10
2018-07-16T01:31:57.187Z,9.35
2018-07-16T01:34:25.485Z,8.85
2018-07-16T01:36:53.877Z,9.70
2018-07-16T01:39:21.967Z,9.80
2018-07-16T01:41:50.257Z,9.75
2018-07-16T01:44:18.470Z,9.83
2018-07-16T01:46:46.868Z,10.20
2018-07-16T01:49:16.290Z,9.40
2018-07-16T01:51:44.694Z,9.80
2018-07-16T01:54:13.053Z,9.00
2018-07-16T01:56:41.394Z,8.97
2018-07-16T01:59:09.565Z,9.68
2018-07-16T02:01:37.681Z,9.73
2018-07-16T02:04:06.893Z,9.58
2018-07-16T02:06:34.674Z,9.65
2018-07-16T02:09:03.794Z,9.25
2018-07-16T02:11:32.299Z,9.83
2018-07-16T02:14:00.901Z,9.95
2018-07-16T02:16:29.507Z,9.60
2018-07-16T02:18:58.004Z,9.77
2018-07-16T02:21:26.314Z,9.53
2018-07-16T02:23:54.537Z,9.73
2018-07-16T02:26:22.905Z,8.80
2018-07-16T02:28:51.187Z,9.28
2018-07-16T02:31:19.780Z,9.65
2018-07-16T02:33:47.993Z,9.45
2018-07-16T02:36:16.400Z,10.05
2018-07-16T02:38:44.788Z,10.00
2018-07-16T02:41:13.091Z,11.10
2018-07-16T02:43:41.271Z,10.85
2018-07-16T02:46:09.798Z,9.93
2018-07-16T02:48:38.065Z,9.55
2018-07-16T02:51:06.171Z,9.60
2018-07-16T02:53:34.511Z,9.65
2018-07-16T02:56:02.987Z,10.35
2018-07-16T02:58:31.382Z,10.75
2018-07-16T03:01:02.025Z,10.35
2018-07-16T03:03:30.939Z,11.25
2018-07-16T03:05:59.351Z,11.03
2018-07-16T03:08:27.736Z,11.08
2018-07-16T03:10:56.204Z,10.68
2018-07-16T03:13:24.436Z,10.82
2018-07-16T03:15:52.619Z,11.70
2018-07-16T03:18:21.132Z,10.53
2018-07-16T03:20:49.660Z,10.93
2018-07-16T03:23:18.033Z,11.03
2018-07-16T03:25:46.314Z,10.10
2018-07-16T03:28:15.153Z,10.32
2018-07-16T03:30:43.515Z,10.63
2018-07-16T03:33:12.040Z,11.12
2018-07-16T03:35:40.309Z,10.65
2018-07-16T03:38:08.603Z,10.72
2018-07-16T03:40:37.035Z,9.90
2018-07-16T03:43:05.442Z,9.70
2018-07-16T03:45:33.933Z,7.00
2018-07-16T03:48:02.231Z,6.92
2018-07-16T03:50:30.424Z,6.50
2018-07-16T03:52:58.624Z,6.50
2018-07-16T03:55:26.782Z,6.65
2018-07-16T03:57:55.202Z,6.10
2018-07-16T04:00:23.716Z,6.05
2018-07-16T04:02:52.218Z,5.58
2018-07-16T04:05:21.757Z,5.53
2018-07-16T04:07:50.250Z,5.83
2018-07-16T04:10:18.648Z,5.10
2018-07-16T04:12:46.930Z,5.80
2018-07-16T04:15:15.835Z,4.97
2018-07-16T04:17:43.795Z,4.15
2018-07-16T04:20:12.342Z,5.33
2018-07-16T04:22:40.628Z,5.05
2018-07-16T04:25:08.747Z,5.25
2018-07-16T04:27:36.915Z,5.37
2018-07-16T04:30:04.899Z,7.50
2018-07-16T04:32:33.333Z,8.48
2018-07-16T04:35:02.023Z,7.62
2018-07-16T04:37:30.295Z,8.28
2018-07-16T04:39:58.917Z,8.70
2018-07-16T04:42:27.775Z,10.08
2018-07-16T04:44:56.127Z,8.15
2018-07-16T04:47:24.666Z,8.18
2018-07-16T04:49:52.815Z,7.90
2018-07-16T04:52:20.796Z,7.67
2018-07-16T04:54:49.190Z,8.10
2018-07-16T04:57:17.688Z,7.40
2018-07-16T04:59:46.212Z,7.70
2018-07-16T05:02:14.225Z,7.37
2018-07-16T05:04:42.559Z,7.65
2018-07-16T05:07:11.958Z,7.75
2018-07-16T05:09:41.099Z,7.05
2018-07-16T05:12:09.553Z,8.80
2018-07-16T05:14:37.851Z,7.10
2018-07-16T05:17:06.449Z,6.90
2018-07-16T05:19:34.659Z,6.70
2018-07-16T05:22:02.845Z,7.35
2018-07-16T05:24:31.355Z,6.80
2018-07-16T05:26:59.914Z,7.40
2018-07-16T05:29:28.346Z,7.45
2018-07-16T05:31:56.927Z,8.08
2018-07-16T05:34:25.566Z,7.80
2018-07-16T05:36:53.873Z,8.28
2018-07-16T05:39:22.595Z,8.25
2018-07-16T05:41:51.080Z,8.05
2018-07-16T05:44:19.659Z,7.60
2018-07-16T05:46:47.752Z,7.62
2018-07-16T05:49:16.476Z,8.30
2018-07-16T05:51:45.182Z,7.22
2018-07-16T05:54:13.370Z,7.45
2018-07-16T05:56:41.878Z,8.15
2018-07-16T05:59:10.388Z,8.65
2018-07-16T06:01:38.678Z,8.20
2018-07-16T06:04:07.258Z,8.05
2018-07-16T06:06:35.460Z,8.25
2018-07-16T06:09:04.567Z,8.83
2018-07-16T06:11:32.671Z,8.60
2018-07-16T06:14:00.972Z,8.50
2018-07-16T06:16:28.974Z,8.80
2018-07-16T06:18:57.278Z,8.10
2018-07-16T06:21:26.697Z,9.03
2018-07-16T06:23:55.119Z,8.45
2018-07-16T06:26:23.591Z,8.43
2018-07-16T06:28:53.113Z,8.00
2018-07-16T06:31:21.495Z,8.40
2018-07-16T06:33:49.817Z,7.60
2018-07-16T06:36:20.571Z,8.05
2018-07-16T06:38:48.885Z,8.00
2018-07-16T06:41:17.910Z,8.90
2018-07-16T06:43:45.847Z,8.90
2018-07-16T06:46:14.043Z,8.80
2018-07-16T06:48:42.146Z,8.98
2018-07-16T06:51:10.645Z,8.33
2018-07-16T06:53:40.461Z,8.90
2018-07-16T06:56:08.764Z,7.95
2018-07-16T06:58:37.102Z,8.85
2018-07-16T07:01:05.584Z,9.10
2018-07-16T07:03:33.888Z,9.58
2018-07-16T07:06:02.774Z,9.70
2018-07-16T07:08:31.689Z,9.70
2018-07-16T07:11:00.112Z,9.00
2018-07-16T07:13:28.408Z,9.03
2018-07-16T07:15:56.839Z,8.80
2018-07-16T07:18:25.040Z,9.08
2018-07-16T07:20:53.314Z,8.40
2018-07-16T07:23:21.777Z,8.48
2018-07-16T07:25:50.138Z,8.60
2018-07-16T07:28:19.418Z,8.30
2018-07-16T07:30:47.619Z,8.33
2018-07-16T07:33:16.088Z,8.63
2018-07-16T07:35:44.568Z,8.40
2018-07-16T07:38:13.507Z,8.30
2018-07-16T07:40:41.817Z,9.40
2018-07-16T07:43:09.789Z,8.05
2018-07-16T07:45:38.367Z,8.30
2018-07-16T07:48:06.815Z,9.00
2018-07-16T07:50:35.431Z,9.10
2018-07-16T07:53:03.780Z,9.38
2018-07-16T07:55:31.953Z,8.60
2018-07-16T07:58:00.418Z,8.60
2018-07-16T08:00:28.808Z,9.05
2018-07-16T08:02:57.186Z,9.75
2018-07-16T08:05:25.598Z,9.60
2018-07-16T08:07:54.224Z,10.80
2018-07-16T08:10:22.837Z,10.90
2018-07-16T08:12:51.511Z,11.30
2018-07-16T08:15:20.120Z,10.68
2018-07-16T08:17:48.740Z,11.30
2018-07-16T08:20:17.235Z,18.17
2018-07-16T08:22:45.516Z,11.18
2018-07-16T08:25:13.525Z,10.00
2018-07-16T08:27:41.891Z,10.70
2018-07-16T08:30:10.203Z,9.90
2018-07-16T08:32:38.421Z,9.95
2018-07-16T08:35:06.903Z,9.43
2018-07-16T08:37:35.207Z,9.40
2018-07-16T08:40:03.431Z,9.28
2018-07-16T08:42:32.129Z,8.73
2018-07-16T08:45:00.591Z,7.50
2018-07-16T08:47:28.748Z,8.95
2018-07-16T08:49:57.337Z,9.00
2018-07-16T08:52:25.833Z,4.80
2018-07-16T08:54:54.326Z,4.10
2018-07-16T08:57:22.698Z,4.08
2018-07-16T08:59:51.130Z,4.20
2018-07-16T09:02:19.406Z,4.92
2018-07-16T09:04:47.540Z,8.60
2018-07-16T09:07:15.906Z,8.70
2018-07-16T09:09:44.211Z,8.28
2018-07-16T09:12:12.698Z,7.30
2018-07-16T09:14:40.911Z,4.20
2018-07-16T09:17:09.403Z,4.00
2018-07-16T09:19:37.731Z,3.77
2018-07-16T09:22:06.203Z,3.72
2018-07-16T09:24:35.019Z,4.30
2018-07-16T09:27:03.521Z,4.12
2018-07-16T09:29:31.819Z,4.15
2018-07-16T09:32:00.355Z,4.00
2018-07-16T09:34:28.725Z,4.40
2018-07-16T09:36:57.324Z,4.30
2018-07-16T09:39:25.922Z,4.75
2018-07-16T09:41:53.926Z,5.00
2018-07-16T09:44:22.145Z,5.80
2018-07-16T09:46:50.272Z,6.00
2018-07-16T09:49:19.698Z,5.70
2018-07-16T09:51:48.109Z,5.80
2018-07-16T09:54:16.592Z,6.28
2018-07-16T09:56:45.229Z,6.30
2018-07-16T09:59:13.304Z,5.92
2018-07-16T10:01:49.033Z,6.40
2018-07-16T10:04:17.367Z,6.40
2018-07-16T10:06:45.640Z,6.27
2018-07-16T10:09:13.987Z,6.75
2018-07-16T10:11:42.603Z,5.90
2018-07-16T10:14:11.603Z,5.78
2018-07-16T10:16:40.000Z,4.85
2018-07-16T10:19:08.652Z,5.15
2018-07-16T10:21:37.008Z,4.80
2018-07-16T10:24:05.627Z,5.05
2018-07-16T10:26:34.029Z,4.50
2018-07-16T10:29:02.279Z,5.80
2018-07-16T10:31:30.588Z,5.87
2018-07-16T10:33:58.752Z,4.80
2018-07-16T10:36:27.279Z,4.50
2018-07-16T10:38:55.813Z,4.70
2018-07-16T10:41:24.711Z,5.90
2018-07-16T10:43:53.012Z,5.62
2018-07-16T10:46:21.419Z,4.87
2018-07-16T10:48:49.914Z,4.90
2018-07-16T10:51:18.622Z,5.35
2018-07-16T10:53:46.912Z,5.60
2018-07-16T10:56:15.982Z,4.97
2018-07-16T10:58:44.554Z,4.92
2018-07-16T11:01:13.116Z,5.20
2018-07-16T11:03:41.488Z,4.80
2018-07-16T11:06:15.538Z,4.60
2018-07-16T11:08:43.903Z,5.15
2018-07-16T11:11:12.256Z,4.90
2018-07-16T11:13:40.564Z,5.30
2018-07-16T11:16:08.866Z,4.92
2018-07-16T11:18:37.377Z,4.50
2018-07-16T11:21:05.870Z,4.47
2018-07-16T11:23:34.492Z,4.83
2018-07-16T11:26:02.965Z,5.22
2018-07-16T11:28:31.384Z,4.90
2018-07-16T11:31:00.459Z,5.55
2018-07-16T11:33:28.880Z,5.00
2018-07-16T11:35:57.418Z,4.80
2018-07-16T11:38:25.561Z,5.00
2018-07-16T11:40:53.546Z,5.15
2018-07-16T11:43:21.760Z,4.80
2018-07-16T11:45:50.367Z,4.70
2018-07-16T11:48:18.644Z,4.40
2018-07-16T11:50:47.212Z,4.30
2018-07-16T11:53:15.666Z,4.30
2018-07-16T11:55:44.106Z,4.75
2018-07-16T11:58:12.388Z,5.00
2018-07-16T12:00:40.872Z,4.50
2018-07-16T12:03:09.464Z,4.37
2018-07-16T12:05:38.089Z,4.50
2018-07-16T12:08:06.469Z,4.40
2018-07-16T12:10:35.295Z,4.00
2018-07-16T12:13:04.765Z,4.20
2018-07-16T12:15:33.073Z,4.60
2018-07-16T12:18:01.391Z,4.20
2018-07-16T12:20:29.486Z,4.10
2018-07-16T12:22:57.999Z,4.20
2018-07-16T12:25:26.383Z,4.10
2018-07-16T12:27:54.585Z,4.00
2018-07-16T12:30:22.653Z,4.20
2018-07-16T12:32:51.330Z,4.42
2018-07-16T12:35:19.927Z,4.75
2018-07-16T12:37:48.274Z,4.37
2018-07-16T12:40:16.565Z,4.00
2018-07-16T12:42:44.990Z,4.30
2018-07-16T12:45:13.701Z,4.35
2018-07-16T12:47:42.097Z,4.12
2018-07-16T12:50:10.430Z,4.20
2018-07-16T12:52:38.908Z,4.40
2018-07-16T12:55:07.296Z,3.98
2018-07-16T12:57:35.720Z,4.00
2018-07-16T13:00:05.460Z,4.20
2018-07-16T13:02:33.928Z,3.60
2018-07-16T13:05:02.372Z,3.80
2018-07-16T13:07:30.726Z,3.85
2018-07-16T13:09:59.346Z,3.70
2018-07-16T13:12:28.419Z,4.10
2018-07-16T13:14:57.065Z,3.60
2018-07-16T13:17:25.667Z,3.80
2018-07-16T13:19:53.939Z,3.40
2018-07-16T13:22:22.064Z,3.42
2018-07-16T13:24:50.731Z,3.65
2018-07-16T13:27:18.740Z,3.50
2018-07-16T13:29:47.002Z,3.20
2018-07-16T13:32:15.471Z,3.30
2018-07-16T13:34:44.263Z,3.52
2018-07-16T13:37:13.193Z,3.50
2018-07-16T13:39:41.481Z,3.50
2018-07-16T13:42:10.010Z,3.42
2018-07-16T13:44:38.486Z,3.42
2018-07-16T13:47:07.095Z,3.60
2018-07-16T13:49:36.286Z,3.35
2018-07-16T13:52:04.696Z,3.30
2018-07-16T13:54:33.229Z,3.15
2018-07-16T13:57:01.703Z,2.90
2018-07-16T13:59:30.301Z,3.25
2018-07-16T14:01:58.734Z,2.90
2018-07-16T14:04:27.092Z,2.70
2018-07-16T14:06:55.475Z,3.37
2018-07-16T14:09:23.576Z,5.20
2018-07-16T14:11:52.518Z,2.58
2018-07-16T14:14:21.001Z,2.80
2018-07-16T14:16:49.286Z,3.20
2018-07-16T14:19:17.259Z,2.90
2018-07-16T14:21:45.579Z,3.30
2018-07-16T14:24:14.071Z,3.40
2018-07-16T14:26:42.288Z,3.35
2018-07-16T14:29:10.879Z,3.12
2018-07-16T14:31:39.539Z,3.60
2018-07-16T14:34:08.604Z,3.35
2018-07-16T14:36:36.763Z,3.20
2018-07-16T14:39:05.997Z,3.50
2018-07-16T14:41:34.317Z,3.30
2018-07-16T14:44:02.392Z,3.70
2018-07-16T14:46:30.490Z,3.67
2018-07-16T14:48:59.288Z,3.70
2018-07-16T14:51:27.602Z,3.83
2018-07-16T14:53:57.532Z,3.80
2018-07-16T14:56:26.713Z,3.75
2018-07-16T14:58:55.052Z,4.00
2018-07-16T15:01:23.449Z,3.90
2018-07-16T15:03:52.037Z,3.80
2018-07-16T15:06:20.360Z,3.80
2018-07-16T15:08:48.658Z,3.77
2018-07-16T15:11:16.719Z,3.70
2018-07-16T15:13:45.655Z,3.70
2018-07-16T15:16:14.326Z,4.00
2018-07-16T15:18:42.759Z,3.70
2018-07-16T15:21:11.119Z,3.70
2018-07-16T15:23:39.317Z,3.80
2018-07-16T15:26:07.659Z,3.77
2018-07-16T15:28:36.246Z,4.00
2018-07-16T15:31:04.666Z,4.00
2018-07-16T15:33:33.775Z,3.80
2018-07-16T15:36:02.137Z,3.90
2018-07-16T15:38:30.574Z,4.70
2018-07-16T15:40:59.146Z,3.70
2018-07-16T15:43:28.319Z,3.70
2018-07-16T15:45:56.807Z,3.80
2018-07-16T15:48:25.647Z,4.00
2018-07-16T15:50:54.011Z,3.70
2018-07-16T15:53:23.228Z,3.47
2018-07-16T15:55:51.845Z,3.60
2018-07-16T15:58:20.102Z,3.80
2018-07-16T16:00:48.300Z,3.60
2018-07-16T16:03:16.611Z,3.77
2018-07-16T16:05:45.421Z,3.70
2018-07-16T16:08:13.829Z,3.37
2018-07-16T16:10:42.342Z,3.70
2018-07-16T16:13:11.073Z,3.70
2018-07-16T16:15:39.375Z,3.80
2018-07-16T16:18:07.852Z,3.50
2018-07-16T16:20:36.461Z,3.70
2018-07-16T16:23:04.964Z,3.80
2018-07-16T16:25:33.329Z,3.90
2018-07-16T16:28:01.630Z,3.50
2018-07-16T16:30:31.461Z,4.37
2018-07-16T16:33:00.080Z,3.92
2018-07-16T16:35:28.675Z,3.80
2018-07-16T16:37:57.500Z,4.12
2018-07-16T16:40:26.005Z,4.25
2018-07-16T16:42:54.316Z,3.80
2018-07-16T16:45:23.009Z,3.65
2018-07-16T16:47:51.430Z,3.87
2018-07-16T16:50:19.684Z,4.20
2018-07-16T16:52:48.005Z,3.80
2018-07-16T16:55:16.907Z,3.80
2018-07-16T16:57:45.418Z,3.90
2018-07-16T17:00:14.009Z,3.70
2018-07-16T17:02:42.413Z,3.70
2018-07-16T17:05:10.805Z,3.50
2018-07-16T17:07:39.646Z,3.80
2018-07-16T17:10:09.033Z,3.40
2018-07-16T17:12:37.507Z,3.98
2018-07-16T17:15:05.491Z,3.57
2018-07-16T17:17:33.925Z,3.75
2018-07-16T17:20:02.932Z,4.25
2018-07-16T17:22:30.816Z,4.00
2018-07-16T17:24:58.903Z,3.90
2018-07-16T17:27:27.007Z,3.42
2018-07-16T17:29:55.516Z,4.10
2018-07-16T17:32:23.988Z,3.77
2018-07-16T17:34:53.518Z,3.60
2018-07-16T17:37:22.163Z,3.80
2018-07-16T17:39:50.667Z,3.98
2018-07-16T17:42:19.751Z,6.78
2018-07-16T17:44:47.860Z,4.62
2018-07-16T17:47:16.352Z,3.85
2018-07-16T17:49:46.178Z,3.80
2018-07-16T17:52:14.561Z,4.00
2018-07-16T17:54:42.953Z,3.50
2018-07-16T17:57:11.529Z,3.72
2018-07-16T17:59:40.212Z,3.80
2018-07-16T18:02:09.443Z,4.70
2018-07-16T18:04:37.794Z,4.65
2018-07-16T18:07:06.569Z,4.97
2018-07-16T18:09:35.023Z,3.90
2018-07-16T18:12:04.754Z,4.00
2018-07-16T18:14:33.151Z,4.35
2018-07-16T18:17:01.533Z,3.80
2018-07-16T18:19:29.746Z,3.90
2018-07-16T18:21:58.204Z,3.98
2018-07-16T18:24:26.734Z,4.40
2018-07-16T18:26:54.954Z,5.65
2018-07-16T18:29:23.551Z,4.50
2018-07-16T18:31:52.254Z,41.58
2018-07-16T18:34:20.770Z,10.10
2018-07-16T18:36:49.132Z,7.80
2018-07-16T18:39:17.751Z,6.50
2018-07-16T18:41:46.771Z,5.50
2018-07-16T18:44:15.075Z,5.70
2018-07-16T18:46:43.960Z,5.10
2018-07-16T18:49:12.255Z,5.15
2018-07-16T18:51:40.998Z,5.05
2018-07-16T18:54:09.634Z,4.92
2018-07-16T18:56:37.985Z,5.58
2018-07-16T18:59:06.620Z,5.50
2018-07-16T19:01:34.886Z,4.80
2018-07-16T19:04:03.289Z,5.28
2018-07-16T19:06:31.728Z,4.80
2018-07-16T19:09:00.159Z,5.30
2018-07-16T19:11:28.804Z,5.50
2018-07-16T19:13:58.627Z,5.17
2018-07-16T19:16:27.285Z,5.80
2018-07-16T19:18:55.784Z,5.50
2018-07-16T19:21:24.250Z,5.70
2018-07-16T19:23:52.829Z,5.70
2018-07-16T19:26:21.214Z,5.20
2018-07-16T19:28:49.696Z,5.30
2018-07-16T19:31:18.228Z,5.40
2018-07-16T19:33:46.130Z,5.60
2018-07-16T19:36:14.536Z,5.17
2018-07-16T19:38:43.394Z,5.10
2018-07-16T19:41:11.800Z,5.00
2018-07-16T19:43:40.327Z,4.78
2018-07-16T19:46:08.540Z,5.55
2018-07-16T19:48:37.639Z,5.33
2018-07-16T19:51:06.041Z,6.20
2018-07-16T19:53:34.768Z,5.28
2018-07-16T19:56:03.959Z,6.03
2018-07-16T19:58:32.181Z,5.20
2018-07-16T20:01:00.738Z,5.20
2018-07-16T20:03:30.497Z,5.22
2018-07-16T20:05:58.709Z,5.00
2018-07-16T20:08:27.022Z,4.93
2018-07-16T20:10:55.362Z,5.25
2018-07-16T20:13:23.880Z,4.83
2018-07-16T20:15:52.351Z,4.87
2018-07-16T20:18:21.812Z,4.70
2018-07-16T20:20:55.329Z,5.10
2018-07-16T20:23:23.848Z,5.20
2018-07-16T20:25:54.128Z,5.00
2018-07-16T20:28:23.120Z,5.20
2018-07-16T20:30:51.555Z,5.10
2018-07-16T20:33:20.884Z,5.40
2018-07-16T20:35:49.649Z,5.20
2018-07-16T20:38:18.180Z,5.20
2018-07-16T20:40:47.131Z,5.40
2018-07-16T20:43:15.563Z,5.50
2018-07-16T20:45:44.172Z,5.65
2018-07-16T20:48:13.104Z,5.97
2018-07-16T20:50:41.558Z,5.40
2018-07-16T20:53:10.709Z,5.50
2018-07-16T20:55:39.274Z,5.78
2018-07-16T20:58:07.571Z,5.80
2018-07-16T21:00:35.582Z,5.87
2018-07-16T21:03:03.867Z,6.10
2018-07-16T21:05:32.767Z,6.20
2018-07-16T21:08:01.576Z,6.30
2018-07-16T21:10:30.070Z,6.12
2018-07-16T21:12:58.159Z,6.50
2018-07-16T21:15:26.778Z,6.08
2018-07-16T21:17:54.879Z,6.00
2018-07-16T21:20:23.172Z,6.08
2018-07-16T21:22:51.880Z,5.97
2018-07-16T21:25:20.176Z,5.80
2018-07-16T21:27:48.565Z,6.40
2018-07-16T21:30:16.659Z,6.10
2018-07-16T21:32:44.889Z,6.15
2018-07-16T21:35:13.056Z,6.67
2018-07-16T21:37:41.034Z,6.30
2018-07-16T21:40:09.120Z,6.55
2018-07-16T21:42:37.509Z,6.20
2018-07-16T21:45:06.457Z,6.60
2018-07-16T21:47:34.819Z,6.40
2018-07-16T21:50:03.225Z,6.65
2018-07-16T21:52:32.756Z,6.70
2018-07-16T21:55:01.260Z,6.40
2018-07-16T21:57:29.460Z,6.25
2018-07-16T21:59:57.542Z,6.55
2018-07-16T22:02:26.014Z,6.60
2018-07-16T22:04:54.357Z,6.80
2018-07-16T22:07:23.408Z,6.40
2018-07-16T22:09:51.633Z,6.97
2018-07-16T22:12:19.845Z,7.08
2018-07-16T22:14:48.160Z,7.03
2018-07-16T22:17:16.543Z,6.70
2018-07-16T22:19:45.272Z,6.80
2018-07-16T22:22:13.439Z,7.28
2018-07-16T22:24:42.561Z,7.47
2018-07-16T22:27:10.656Z,7.30
2018-07-16T22:29:39.058Z,7.62
2018-07-16T22:32:07.575Z,7.67
2018-07-16T22:34:35.744Z,7.67
2018-07-16T22:37:04.243Z,8.00
2018-07-16T22:39:32.661Z,7.50
2018-07-16T22:42:00.870Z,7.60
2018-07-16T22:44:28.928Z,8.08
2018-07-16T22:46:57.236Z,8.00
2018-07-16T22:49:25.558Z,8.10
2018-07-16T22:51:53.738Z,7.90
2018-07-16T22:54:21.729Z,8.18
2018-07-16T22:56:50.042Z,7.78
2018-07-16T22:59:18.424Z,8.00
2018-07-16T23:01:47.027Z,8.38
2018-07-16T23:04:15.244Z,8.05
2018-07-16T23:06:43.633Z,7.70
2018-07-16T23:09:11.706Z,8.40
2018-07-16T23:11:42.170Z,8.48
2018-07-16T23:14:10.556Z,7.83
2018-07-16T23:16:38.970Z,8.20
2018-07-16T23:19:07.069Z,8.53
2018-07-16T23:21:35.369Z,8.08
2018-07-16T23:24:04.181Z,7.80
2018-07-16T23:26:32.752Z,7.80
2018-07-16T23:29:01.866Z,8.00
2018-07-16T23:31:29.981Z,8.05
2018-07-16T23:33:58.075Z,8.10
2018-07-16T23:36:26.497Z,8.30
2018-07-16T23:38:54.774Z,8.05
2018-07-16T23:41:24.036Z,8.35
2018-07-16T23:43:52.405Z,8.43
2018-07-16T23:46:20.700Z,8.53
2018-07-16T23:48:50.190Z,9.00
2018-07-16T23:51:18.824Z,8.80
2018-07-16T23:53:47.332Z,8.95
2018-07-16T23:56:15.620Z,8.78
2018-07-16T23:58:43.896Z,9.28
